createdAt,value
2022-09-12T00:01:35.878Z,13.35
2022-09-12T00:04:03.563Z,12.35
2022-09-12T00:06:33.581Z,12.20
2022-09-12T00:09:04.458Z,13.33
2022-09-12T00:11:31.262Z,11.42
2022-09-12T00:13:59.989Z,13.29
2022-09-12T00:16:28.740Z,12.13
2022-09-12T00:18:55.431Z,12.80
2022-09-12T00:21:23.520Z,13.30
2022-09-12T00:23:51.551Z,11.94
2022-09-12T00:26:19.721Z,13.22
2022-09-12T00:28:46.916Z,13.00
2022-09-12T00:31:21.075Z,13.22
2022-09-12T00:33:47.908Z,12.97
2022-09-12T00:36:20.232Z,12.71
2022-09-12T00:38:49.167Z,12.87
2022-09-12T00:41:26.708Z,13.11
2022-09-12T00:44:00.450Z,11.44
2022-09-12T00:46:41.938Z,13.02
2022-09-12T00:49:23.112Z,13.03
2022-09-12T00:52:02.074Z,12.17
2022-09-12T00:54:33.934Z,12.32
2022-09-12T00:57:06.513Z,11.30
2022-09-12T00:59:48.510Z,11.93
2022-09-12T01:02:15.510Z,12.32
2022-09-12T01:04:44.441Z,12.32
2022-09-12T01:07:13.272Z,11.63
2022-09-12T01:09:41.723Z,12.97
2022-09-12T01:12:08.821Z,12.02
2022-09-12T01:14:36.996Z,12.19
2022-09-12T01:17:03.938Z,11.12
2022-09-12T01:19:48.834Z,12.85
2022-09-12T01:22:53.101Z,12.81
2022-09-12T01:25:50.235Z,12.84
2022-09-12T01:28:29.176Z,11.65
2022-09-12T01:31:04.830Z,12.77
2022-09-12T01:33:45.007Z,12.53
2022-09-12T01:36:28.317Z,12.33
2022-09-12T01:39:02.100Z,12.29
2022-09-12T01:41:42.886Z,12.64
2022-09-12T01:44:25.434Z,12.62
2022-09-12T01:46:59.758Z,11.61
2022-09-12T01:49:52.440Z,12.41
2022-09-12T01:52:50.082Z,12.65
2022-09-12T01:55:23.538Z,12.43
2022-09-12T01:58:07.904Z,12.03
2022-09-12T02:00:52.052Z,11.52
2022-09-12T02:03:29.516Z,12.58
2022-09-12T02:06:08.648Z,10.54
2022-09-12T02:08:43.332Z,11.22
2022-09-12T02:11:11.833Z,12.48
2022-09-12T02:13:43.140Z,12.06
2022-09-12T02:16:34.199Z,12.03
2022-09-12T02:19:16.065Z,11.49
2022-09-12T02:21:49.108Z,11.55
2022-09-12T02:24:18.250Z,12.52
2022-09-12T02:26:54.584Z,12.52
2022-09-12T02:29:21.391Z,11.30
2022-09-12T02:31:52.811Z,12.44
2022-09-12T02:35:12.259Z,12.47
2022-09-12T02:37:56.011Z,11.37
2022-09-12T02:40:23.323Z,11.77
2022-09-12T02:42:50.551Z,12.18
2022-09-12T02:45:17.952Z,11.68
2022-09-12T02:48:04.253Z,12.38
2022-09-12T02:50:32.132Z,11.89
2022-09-12T02:53:04.338Z,12.08
2022-09-12T02:55:34.006Z,11.80
2022-09-12T02:58:06.831Z,12.09
2022-09-12T03:00:48.027Z,11.39
2022-09-12T03:03:33.286Z,12.46
2022-09-12T03:06:03.142Z,11.70
2022-09-12T03:08:40.231Z,11.79
2022-09-12T03:11:16.427Z,12.41
2022-09-12T03:14:00.117Z,12.40
2022-09-12T03:16:46.663Z,12.31
2022-09-12T03:19:14.476Z,11.88
2022-09-12T03:21:56.394Z,12.28
2022-09-12T03:24:38.151Z,11.19
2022-09-12T03:27:17.439Z,11.96
2022-09-12T03:29:50.803Z,11.52
2022-09-12T03:32:18.166Z,12.15
2022-09-12T03:34:45.233Z,12.15
2022-09-12T03:37:11.877Z,12.13
2022-09-12T03:39:38.491Z,11.71
2022-09-12T03:42:05.263Z,11.34
2022-09-12T03:44:31.842Z,11.21
2022-09-12T03:46:58.771Z,10.52
2022-09-12T03:49:25.343Z,11.79
2022-09-12T03:51:55.259Z,11.65
2022-09-12T03:54:21.981Z,10.76
2022-09-12T03:56:48.579Z,12.02
2022-09-12T03:59:16.116Z,10.85
2022-09-12T04:01:42.776Z,12.00
2022-09-12T04:04:09.895Z,11.95
2022-09-12T04:06:36.458Z,11.93
2022-09-12T04:09:03.759Z,11.96
2022-09-12T04:11:32.167Z,11.95
2022-09-12T04:13:58.762Z,11.98
2022-09-12T04:16:25.397Z,11.41
2022-09-12T04:18:51.984Z,11.96
2022-09-12T04:21:23.314Z,10.88
2022-09-12T04:23:50.355Z,12.02
2022-09-12T04:26:18.437Z,11.30
2022-09-12T04:28:46.944Z,11.75
2022-09-12T04:31:17.985Z,12.15
2022-09-12T04:33:45.539Z,12.21
2022-09-12T04:36:16.947Z,12.23
2022-09-12T04:38:45.411Z,12.29
2022-09-12T04:41:19.403Z,10.95
2022-09-12T04:43:46.875Z,12.29
2022-09-12T04:46:15.407Z,11.80
2022-09-12T04:48:44.023Z,11.32
2022-09-12T04:51:15.856Z,11.44
2022-09-12T04:53:50.295Z,10.78
2022-09-12T04:56:16.945Z,11.38
2022-09-12T04:58:43.939Z,10.65
2022-09-12T05:01:14.677Z,12.27
2022-09-12T05:03:43.495Z,11.84
2022-09-12T05:06:16.604Z,12.27
2022-09-12T05:08:43.938Z,12.08
2022-09-12T05:11:26.657Z,12.32
2022-09-12T05:13:58.586Z,12.38
2022-09-12T05:16:28.546Z,11.82
2022-09-12T05:18:59.212Z,9.14
2022-09-12T05:21:27.055Z,12.05
2022-09-12T05:23:55.705Z,11.53
2022-09-12T05:26:23.854Z,12.53
2022-09-12T05:28:52.203Z,12.68
2022-09-12T05:31:23.115Z,12.62
2022-09-12T05:33:52.647Z,10.34
2022-09-12T05:36:28.686Z,13.11
2022-09-12T05:38:57.094Z,13.04
2022-09-12T05:41:26.078Z,13.36
2022-09-12T05:43:57.792Z,13.50
2022-09-12T05:46:27.145Z,12.34
2022-09-12T05:48:56.308Z,13.72
2022-09-12T05:51:26.712Z,12.65
2022-09-12T05:53:57.027Z,13.97
2022-09-12T05:56:26.155Z,14.14
2022-09-12T05:58:59.728Z,13.48
2022-09-12T06:01:28.120Z,13.97
2022-09-12T06:03:58.404Z,13.72
2022-09-12T06:06:27.764Z,14.14
2022-09-12T06:09:00.764Z,13.27
2022-09-12T06:11:30.486Z,13.43
2022-09-12T06:13:58.519Z,16.43
2022-09-12T06:16:30.646Z,16.14
2022-09-12T06:19:03.093Z,16.04
2022-09-12T06:21:31.306Z,15.87
2022-09-12T06:24:01.578Z,15.91
2022-09-12T06:26:29.291Z,15.68
2022-09-12T06:28:58.437Z,16.05
2022-09-12T06:31:29.146Z,16.13
2022-09-12T06:33:59.360Z,16.31
2022-09-12T06:36:28.676Z,16.45
2022-09-12T06:39:01.137Z,16.34
2022-09-12T06:41:29.117Z,18.10
2022-09-12T06:43:56.071Z,18.98
2022-09-12T06:46:23.323Z,19.50
2022-09-12T06:48:50.617Z,18.65
2022-09-12T06:51:20.065Z,19.26
2022-09-12T06:53:48.404Z,19.11
2022-09-12T06:56:20.717Z,19.98
2022-09-12T06:58:49.953Z,19.77
2022-09-12T07:01:22.207Z,21.21
2022-09-12T07:03:51.684Z,19.82
2022-09-12T07:06:21.130Z,21.03
2022-09-12T07:08:48.485Z,21.76
2022-09-12T07:11:20.164Z,21.65
2022-09-12T07:13:49.534Z,21.67
2022-09-12T07:16:19.899Z,20.82
2022-09-12T07:19:02.654Z,21.27
2022-09-12T07:21:30.299Z,20.64
2022-09-12T07:24:00.599Z,19.76
2022-09-12T07:26:30.378Z,20.18
2022-09-12T07:29:18.638Z,19.82
2022-09-12T07:31:45.712Z,20.53
2022-09-12T07:34:12.878Z,20.34
2022-09-12T07:36:39.629Z,20.47
2022-09-12T07:39:07.347Z,21.33
2022-09-12T07:41:34.247Z,21.30
2022-09-12T07:44:03.200Z,22.03
2022-09-12T07:46:31.567Z,21.34
2022-09-12T07:49:00.078Z,22.76
2022-09-12T07:51:28.870Z,22.29
2022-09-12T07:53:57.283Z,22.55
2022-09-12T07:56:30.522Z,20.93
2022-09-12T07:58:59.918Z,21.60
2022-09-12T08:01:26.990Z,23.06
2022-09-12T08:03:59.373Z,23.45
2022-09-12T08:06:30.306Z,24.21
2022-09-12T08:08:59.573Z,24.06
2022-09-12T08:11:30.706Z,23.45
2022-09-12T08:13:58.280Z,23.06
2022-09-12T08:16:31.300Z,24.03
2022-09-12T08:19:04.392Z,24.08
2022-09-12T08:21:32.842Z,23.44
2022-09-12T08:24:02.564Z,22.28
2022-09-12T08:26:31.210Z,20.24
2022-09-12T08:28:58.598Z,20.15
2022-09-12T08:31:27.363Z,21.38
2022-09-12T08:33:58.163Z,22.91
2022-09-12T08:36:27.390Z,23.51
2022-09-12T08:38:59.892Z,22.98
2022-09-12T08:41:39.586Z,22.99
2022-09-12T08:44:15.847Z,21.57
2022-09-12T08:47:01.462Z,22.27
2022-09-12T08:49:53.769Z,23.39
2022-09-12T08:52:25.117Z,24.89
2022-09-12T08:54:53.811Z,25.80
2022-09-12T08:57:24.203Z,26.45
2022-09-12T08:59:52.995Z,26.36
2022-09-12T09:02:42.226Z,27.07
2022-09-12T09:05:37.180Z,27.08
2022-09-12T09:08:32.723Z,25.56
2022-09-12T09:11:16.793Z,26.72
2022-09-12T09:14:20.753Z,25.71
2022-09-12T09:16:50.675Z,24.45
2022-09-12T09:19:20.281Z,27.15
2022-09-12T09:22:13.574Z,26.78
2022-09-12T09:24:45.986Z,26.44
2022-09-12T09:27:39.896Z,27.06
2022-09-12T09:30:16.091Z,26.44
2022-09-12T09:32:44.093Z,27.45
2022-09-12T09:35:24.910Z,26.91
2022-09-12T09:38:09.642Z,27.12
2022-09-12T09:40:49.202Z,27.68
2022-09-12T09:43:25.567Z,27.37
2022-09-12T09:45:53.065Z,26.78
2022-09-12T09:48:27.336Z,26.48
2022-09-12T09:50:54.158Z,26.31
2022-09-12T09:53:35.179Z,25.94
2022-09-12T09:56:07.866Z,25.96
2022-09-12T09:58:35.900Z,26.37
2022-09-12T10:01:07.469Z,26.06
2022-09-12T10:03:40.435Z,23.12
2022-09-12T10:06:28.843Z,24.88
2022-09-12T10:09:09.591Z,23.50
2022-09-12T10:11:39.768Z,22.52
2022-09-12T10:14:27.056Z,24.55
2022-09-12T10:16:53.881Z,24.13
2022-09-12T10:19:26.886Z,24.38
2022-09-12T10:21:57.138Z,23.27
2022-09-12T10:24:31.439Z,23.61
2022-09-12T10:27:06.158Z,23.90
2022-09-12T10:29:39.308Z,22.74
2022-09-12T10:32:09.271Z,23.05
2022-09-12T10:34:38.178Z,23.70
2022-09-12T10:37:08.318Z,22.79
2022-09-12T10:39:38.403Z,24.05
2022-09-12T10:42:08.399Z,23.80
2022-09-12T10:44:35.598Z,24.16
2022-09-12T10:47:32.000Z,23.99
2022-09-12T10:50:39.149Z,23.20
2022-09-12T10:53:20.422Z,22.78
2022-09-12T10:56:10.079Z,24.16
2022-09-12T10:58:58.529Z,24.13
2022-09-12T11:01:49.340Z,24.31
2022-09-12T11:04:24.963Z,24.30
2022-09-12T11:07:14.147Z,24.31
2022-09-12T11:09:47.099Z,24.31
2022-09-12T11:12:23.657Z,24.26
2022-09-12T11:15:22.414Z,23.44
2022-09-12T11:18:04.632Z,22.64
2022-09-12T11:21:09.706Z,23.74
2022-09-12T11:23:56.046Z,23.99
2022-09-12T11:26:50.689Z,23.49
2022-09-12T11:29:22.264Z,22.65
2022-09-12T11:32:31.447Z,24.02
2022-09-12T11:35:25.240Z,23.97
2022-09-12T11:37:55.494Z,23.79
2022-09-12T11:41:02.420Z,23.75
2022-09-12T11:43:56.296Z,23.73
2022-09-12T11:46:31.687Z,23.90
2022-09-12T11:49:05.709Z,23.47
2022-09-12T11:52:00.577Z,24.14
2022-09-12T11:54:42.595Z,23.89
2022-09-12T11:57:35.800Z,24.38
2022-09-12T12:00:36.236Z,23.99
2022-09-12T12:03:07.405Z,24.08
2022-09-12T12:05:50.494Z,24.09
2022-09-12T12:08:17.390Z,24.30
2022-09-12T12:10:51.456Z,24.16
2022-09-12T12:13:21.099Z,23.03
2022-09-12T12:15:53.582Z,24.43
2022-09-12T12:18:23.944Z,24.55
2022-09-12T12:20:53.299Z,24.25
2022-09-12T12:23:34.963Z,24.28
2022-09-12T12:26:03.926Z,24.68
2022-09-12T12:28:42.902Z,25.01
2022-09-12T12:31:11.870Z,25.02
2022-09-12T12:33:38.384Z,24.93
2022-09-12T12:36:10.812Z,24.89
2022-09-12T12:38:40.124Z,24.27
2022-09-12T12:41:19.090Z,25.08
2022-09-12T12:43:53.295Z,23.76
2022-09-12T12:46:28.620Z,24.67
2022-09-12T12:49:29.382Z,24.97
2022-09-12T12:52:01.600Z,22.98
2022-09-12T12:54:52.538Z,24.51
2022-09-12T12:57:22.455Z,24.89
2022-09-12T12:59:56.724Z,24.91
2022-09-12T13:02:37.517Z,24.22
2022-09-12T13:05:16.320Z,24.90
2022-09-12T13:07:48.083Z,24.75
2022-09-12T13:10:29.564Z,24.75
2022-09-12T13:13:00.031Z,22.63
2022-09-12T13:15:56.470Z,24.80
2022-09-12T13:18:45.641Z,25.18
2022-09-12T13:21:14.933Z,24.58
2022-09-12T13:23:42.222Z,24.20
2022-09-12T13:26:12.530Z,25.40
2022-09-12T13:28:39.245Z,25.03
2022-09-12T13:31:32.879Z,25.21
2022-09-12T13:34:05.601Z,25.24
2022-09-12T13:36:41.632Z,25.37
2022-09-12T13:39:29.221Z,24.53
2022-09-12T13:42:03.128Z,25.07
2022-09-12T13:44:32.894Z,24.85
2022-09-12T13:47:03.586Z,24.69
2022-09-12T13:49:37.750Z,25.53
2022-09-12T13:52:14.875Z,23.90
2022-09-12T13:54:46.081Z,25.82
2022-09-12T13:57:32.415Z,25.76
2022-09-12T14:00:06.289Z,25.74
2022-09-12T14:02:36.738Z,25.71
2022-09-12T14:05:14.528Z,26.17
2022-09-12T14:08:08.599Z,26.06
2022-09-12T14:13:32.160Z,25.17
2022-09-12T14:16:00.573Z,25.67
2022-09-12T14:18:31.245Z,24.30
2022-09-12T14:21:10.484Z,23.30
2022-09-12T14:23:42.795Z,24.83
2022-09-12T14:26:13.416Z,25.90
2022-09-12T14:28:42.363Z,25.74
2022-09-12T14:31:19.151Z,26.05
2022-09-12T14:34:08.846Z,24.63
2022-09-12T14:36:40.258Z,26.03
2022-09-12T14:39:18.297Z,26.09
2022-09-12T14:41:46.546Z,25.68
2022-09-12T14:44:39.710Z,26.19
2022-09-12T14:47:16.583Z,25.91
2022-09-12T14:49:43.734Z,24.56
2022-09-12T14:52:40.399Z,25.34
2022-09-12T14:55:18.805Z,25.90
2022-09-12T14:57:47.898Z,23.36
2022-09-12T15:00:22.200Z,25.76
2022-09-12T15:02:51.099Z,24.68
2022-09-12T15:05:21.818Z,25.77
2022-09-12T15:07:54.698Z,25.84
2022-09-12T15:10:27.638Z,23.26
2022-09-12T15:13:17.759Z,23.66
2022-09-12T15:15:53.683Z,24.98
2022-09-12T15:18:22.394Z,25.08
2022-09-12T15:20:52.909Z,25.21
2022-09-12T15:23:35.252Z,22.70
2022-09-12T15:26:02.533Z,24.08
2022-09-12T15:28:31.984Z,25.57
2022-09-12T15:31:06.673Z,25.60
2022-09-12T15:33:33.787Z,24.76
2022-09-12T15:36:00.493Z,25.33
2022-09-12T15:38:27.262Z,24.57
2022-09-12T15:40:54.748Z,23.14
2022-09-12T15:43:25.411Z,24.70
2022-09-12T15:45:53.351Z,24.49
2022-09-12T15:48:21.087Z,24.80
2022-09-12T15:50:48.452Z,24.77
2022-09-12T15:53:18.867Z,24.86
2022-09-12T15:55:45.733Z,24.88
2022-09-12T15:58:12.986Z,24.82
2022-09-12T16:00:39.621Z,24.65
2022-09-12T16:03:06.568Z,24.65
2022-09-12T16:05:33.424Z,24.58
2022-09-12T16:08:00.139Z,24.87
2022-09-12T16:10:30.246Z,24.62
2022-09-12T16:12:57.877Z,24.88
2022-09-12T16:15:33.515Z,24.68
2022-09-12T16:18:00.222Z,24.95
2022-09-12T16:20:27.205Z,24.90
2022-09-12T16:22:53.782Z,24.34
2022-09-12T16:25:24.377Z,23.44
2022-09-12T16:27:51.229Z,21.64
2022-09-12T16:30:18.006Z,24.65
2022-09-12T16:32:44.838Z,24.06
2022-09-12T16:35:11.457Z,24.50
2022-09-12T16:37:38.583Z,24.51
2022-09-12T16:40:06.534Z,24.54
2022-09-12T16:42:34.140Z,23.97
2022-09-12T16:45:00.865Z,23.12
2022-09-12T16:47:27.699Z,24.52
2022-09-12T16:49:54.547Z,23.87
2022-09-12T16:52:21.581Z,23.30
2022-09-12T16:54:48.213Z,24.42
2022-09-12T16:57:15.813Z,23.32
2022-09-12T16:59:43.611Z,24.33
2022-09-12T17:02:13.640Z,23.91
2022-09-12T17:04:40.575Z,24.20
2022-09-12T17:07:08.040Z,23.72
2022-09-12T17:09:35.059Z,24.03
2022-09-12T17:12:02.063Z,23.96
2022-09-12T17:14:28.704Z,23.52
2022-09-12T17:16:55.565Z,23.83
2022-09-12T17:19:32.258Z,22.96
2022-09-12T17:21:59.190Z,23.18
2022-09-12T17:24:26.771Z,23.51
2022-09-12T17:26:54.872Z,22.92
2022-09-12T17:29:21.480Z,22.92
2022-09-12T17:31:48.817Z,23.15
2022-09-12T17:34:16.637Z,23.03
2022-09-12T17:36:45.475Z,22.57
2022-09-12T17:39:13.910Z,22.83
2022-09-12T17:41:46.234Z,22.00
2022-09-12T17:44:15.028Z,22.65
2022-09-12T17:46:43.113Z,22.58
2022-09-12T17:49:18.714Z,21.60
2022-09-12T17:51:45.720Z,21.58
2022-09-12T17:54:16.111Z,21.84
2022-09-12T17:56:45.612Z,22.24
2022-09-12T17:59:15.996Z,22.16
2022-09-12T18:02:02.028Z,22.13
2022-09-12T18:04:28.847Z,21.08
2022-09-12T18:06:57.774Z,22.05
2022-09-12T18:09:27.938Z,21.48
2022-09-12T18:11:55.432Z,21.73
2022-09-12T18:14:22.905Z,21.21
2022-09-12T18:16:50.424Z,20.96
2022-09-12T18:19:17.287Z,21.63
2022-09-12T18:21:44.112Z,20.97
2022-09-12T18:24:12.642Z,21.53
2022-09-12T18:26:39.462Z,21.50
2022-09-12T18:29:06.293Z,21.49
2022-09-12T18:31:33.063Z,21.26
2022-09-12T18:34:00.950Z,21.39
2022-09-12T18:36:28.408Z,21.31
2022-09-12T18:38:57.405Z,21.23
2022-09-12T18:41:24.830Z,21.11
2022-09-12T18:43:59.665Z,20.89
2022-09-12T18:46:27.972Z,20.37
2022-09-12T18:48:57.684Z,20.14
2022-09-12T18:51:34.654Z,20.78
2022-09-12T18:54:05.398Z,20.74
2022-09-12T18:56:34.380Z,19.73
2022-09-12T18:59:03.576Z,20.31
2022-09-12T19:01:32.820Z,20.23
2022-09-12T19:04:02.851Z,19.18
2022-09-12T19:06:36.869Z,20.23
2022-09-12T19:09:08.046Z,19.37
2022-09-12T19:11:37.164Z,19.12
2022-09-12T19:14:04.761Z,20.34
2022-09-12T19:16:32.061Z,20.28
2022-09-12T19:18:59.179Z,19.05
2022-09-12T19:21:28.343Z,20.18
2022-09-12T19:24:05.501Z,19.77
2022-09-12T19:26:33.051Z,20.28
2022-09-12T19:29:02.481Z,20.18
2022-09-12T19:31:29.908Z,19.65
2022-09-12T19:34:01.003Z,20.06
2022-09-12T19:36:46.730Z,18.27
2022-09-12T19:39:17.770Z,19.40
2022-09-12T19:41:45.788Z,19.81
2022-09-12T19:44:13.301Z,19.81
2022-09-12T19:46:41.773Z,19.73
2022-09-12T19:49:11.780Z,19.65
2022-09-12T19:51:38.608Z,19.13
2022-09-12T19:54:06.332Z,19.27
2022-09-12T19:56:33.028Z,19.53
2022-09-12T19:59:00.196Z,17.16
2022-09-12T20:01:30.804Z,19.41
2022-09-12T20:03:58.723Z,18.53
2022-09-12T20:06:26.071Z,17.48
2022-09-12T20:08:53.763Z,19.12
2022-09-12T20:11:25.536Z,18.86
2022-09-12T20:13:53.489Z,19.04
2022-09-12T20:16:30.163Z,18.63
2022-09-12T20:18:59.711Z,18.94
2022-09-12T20:21:32.694Z,18.90
2022-09-12T20:24:07.497Z,18.24
2022-09-12T20:26:34.320Z,18.62
2022-09-12T20:29:01.274Z,18.44
2022-09-12T20:31:28.693Z,18.78
2022-09-12T20:33:56.685Z,18.73
2022-09-12T20:36:25.041Z,18.77
2022-09-12T20:38:57.555Z,18.75
2022-09-12T20:41:25.470Z,17.99
2022-09-12T20:43:53.362Z,18.70
2022-09-12T20:46:23.630Z,17.91
2022-09-12T20:48:51.265Z,18.11
2022-09-12T20:51:22.091Z,18.00
2022-09-12T20:53:55.689Z,18.69
2022-09-12T20:56:23.682Z,18.65
2022-09-12T20:58:51.217Z,17.45
2022-09-12T21:01:21.415Z,18.54
2022-09-12T21:03:51.436Z,18.53
2022-09-12T21:06:18.533Z,17.92
2022-09-12T21:08:47.559Z,18.40
2022-09-12T21:11:16.642Z,17.80
2022-09-12T21:13:43.397Z,17.84
2022-09-12T21:16:18.650Z,17.85
2022-09-12T21:18:45.942Z,18.08
2022-09-12T21:21:14.227Z,18.23
2022-09-12T21:25:58.430Z,17.99
2022-09-12T21:28:25.367Z,18.15
2022-09-12T21:30:52.333Z,18.01
2022-09-12T21:33:20.893Z,17.70
2022-09-12T21:35:48.984Z,17.75
2022-09-12T21:38:19.733Z,17.09
2022-09-12T21:40:47.687Z,17.52
2022-09-12T21:43:14.687Z,17.89
2022-09-12T21:45:41.328Z,17.46
2022-09-12T21:48:08.330Z,17.66
2022-09-12T21:50:35.168Z,17.63
2022-09-12T21:53:01.953Z,17.99
2022-09-12T21:55:29.347Z,17.96
2022-09-12T21:57:56.248Z,17.76
2022-09-12T22:00:23.382Z,17.90
2022-09-12T22:02:50.663Z,17.67
2022-09-12T22:05:21.266Z,17.27
2022-09-12T22:07:49.598Z,17.78
2022-09-12T22:10:16.559Z,16.76
2022-09-12T22:12:46.217Z,17.27
2022-09-12T22:15:38.941Z,17.61
2022-09-12T22:18:01.010Z,17.53
2022-09-12T22:20:27.603Z,17.50
2022-09-12T22:23:13.605Z,16.31
2022-09-12T22:25:40.447Z,16.08
2022-09-12T22:28:07.210Z,17.38
2022-09-12T22:30:34.692Z,16.51
2022-09-12T22:33:01.471Z,16.43
2022-09-12T22:35:28.202Z,17.25
2022-09-12T22:37:54.716Z,16.37
2022-09-12T22:40:21.403Z,17.25
2022-09-12T22:42:50.898Z,16.67
2022-09-12T22:45:18.323Z,17.12
2022-09-12T22:47:44.816Z,16.87
2022-09-12T22:50:12.187Z,16.25
2022-09-12T22:52:38.711Z,17.01
2022-09-12T22:55:05.508Z,16.81
2022-09-12T22:57:32.225Z,16.96
2022-09-12T22:59:58.987Z,15.24
2022-09-12T23:02:25.692Z,16.93
2022-09-12T23:04:52.420Z,15.86
2022-09-12T23:07:19.087Z,16.29
2022-09-12T23:09:46.319Z,16.84
